sensor_id;sensor_type;location;lat;lon;timestamp;P1;durP1;ratioP1;P2;durP2;ratioP2
20754;SDS011;26385;48.470;7.938;2022-07-22T00:02:00;8.23;;;6.60;;
20754;SDS011;26385;48.470;7.938;2022-07-22T00:04:25;6.80;;;6.20;;
20754;SDS011;26385;48.470;7.938;2022-07-22T00:06:51;9.70;;;6.95;;
20754;SDS011;26385;48.470;7.938;2022-07-22T00:09:16;7.75;;;6.40;;
20754;SDS011;26385;48.470;7.938;2022-07-22T00:11:42;7.47;;;6.78;;
20754;SDS011;26385;48.470;7.938;2022-07-22T00:14:07;8.57;;;7.50;;
20754;SDS011;26385;48.470;7.938;2022-07-22T00:16:32;9.23;;;7.07;;
20754;SDS011;26385;48.470;7.938;2022-07-22T00:18:58;7.90;;;7.10;;
20754;SDS011;26385;48.470;7.938;2022-07-22T00:21:23;7.55;;;6.85;;
20754;SDS011;26385;48.470;7.938;2022-07-22T00:23:49;8.98;;;7.82;;
20754;SDS011;26385;48.470;7.938;2022-07-22T00:26:14;9.57;;;7.97;;
20754;SDS011;26385;48.470;7.938;2022-07-22T00:28:39;9.77;;;8.00;;
20754;SDS011;26385;48.470;7.938;2022-07-22T00:31:05;9.30;;;8.13;;
20754;SDS011;26385;48.470;7.938;2022-07-22T00:33:30;9.60;;;8.25;;
20754;SDS011;26385;48.470;7.938;2022-07-22T00:35:56;9.50;;;8.50;;
20754;SDS011;26385;48.470;7.938;2022-07-22T00:38:22;10.15;;;8.27;;
20754;SDS011;26385;48.470;7.938;2022-07-22T00:40:47;9.75;;;8.75;;
20754;SDS011;26385;48.470;7.938;2022-07-22T00:43:12;8.90;;;8.00;;
20754;SDS011;26385;48.470;7.938;2022-07-22T00:45:37;11.05;;;8.20;;
20754;SDS011;26385;48.470;7.938;2022-07-22T00:48:03;10.00;;;8.60;;
20754;SDS011;26385;48.470;7.938;2022-07-22T00:50:28;11.18;;;8.73;;
20754;SDS011;26385;48.470;7.938;2022-07-22T00:52:54;8.75;;;7.95;;
20754;SDS011;26385;48.470;7.938;2022-07-22T00:55:19;9.40;;;7.72;;
20754;SDS011;26385;48.470;7.938;2022-07-22T00:57:45;8.55;;;7.50;;
20754;SDS011;26385;48.470;7.938;2022-07-22T01:00:12;8.75;;;7.13;;
20754;SDS011;26385;48.470;7.938;2022-07-22T01:02:41;9.15;;;6.97;;
20754;SDS011;26385;48.470;7.938;2022-07-22T01:05:07;7.80;;;7.00;;
20754;SDS011;26385;48.470;7.938;2022-07-22T01:07:32;10.90;;;7.10;;
20754;SDS011;26385;48.470;7.938;2022-07-22T01:09:58;7.90;;;7.20;;
20754;SDS011;26385;48.470;7.938;2022-07-22T01:12:23;9.95;;;7.47;;
20754;SDS011;26385;48.470;7.938;2022-07-22T01:14:48;8.75;;;7.95;;
20754;SDS011;26385;48.470;7.938;2022-07-22T01:17:14;9.23;;;7.70;;
20754;SDS011;26385;48.470;7.938;2022-07-22T01:19:39;10.52;;;7.88;;
20754;SDS011;26385;48.470;7.938;2022-07-22T01:22:05;8.80;;;7.90;;
20754;SDS011;26385;48.470;7.938;2022-07-22T01:24:31;10.30;;;8.60;;
20754;SDS011;26385;48.470;7.938;2022-07-22T01:26:57;9.60;;;8.43;;
20754;SDS011;26385;48.470;7.938;2022-07-22T01:29:22;9.60;;;8.65;;
20754;SDS011;26385;48.470;7.938;2022-07-22T01:31:48;10.60;;;8.50;;
20754;SDS011;26385;48.470;7.938;2022-07-22T01:34:13;10.52;;;8.57;;
20754;SDS011;26385;48.470;7.938;2022-07-22T01:36:38;9.60;;;8.65;;
20754;SDS011;26385;48.470;7.938;2022-07-22T01:39:04;12.43;;;8.38;;
20754;SDS011;26385;48.470;7.938;2022-07-22T01:41:29;9.73;;;8.68;;
20754;SDS011;26385;48.470;7.938;2022-07-22T01:43:54;9.30;;;8.30;;
20754;SDS011;26385;48.470;7.938;2022-07-22T01:46:19;9.00;;;8.10;;
20754;SDS011;26385;48.470;7.938;2022-07-22T01:48:45;11.23;;;8.52;;
20754;SDS011;26385;48.470;7.938;2022-07-22T01:51:10;9.05;;;8.18;;
20754;SDS011;26385;48.470;7.938;2022-07-22T01:53:36;11.23;;;9.20;;
20754;SDS011;26385;48.470;7.938;2022-07-22T01:56:01;11.35;;;8.85;;
20754;SDS011;26385;48.470;7.938;2022-07-22T01:58:26;9.93;;;8.88;;
20754;SDS011;26385;48.470;7.938;2022-07-22T02:00:52;9.40;;;8.25;;
20754;SDS011;26385;48.470;7.938;2022-07-22T02:03:17;11.60;;;8.70;;
20754;SDS011;26385;48.470;7.938;2022-07-22T02:05:42;12.20;;;7.97;;
20754;SDS011;26385;48.470;7.938;2022-07-22T02:08:08;8.77;;;8.00;;
20754;SDS011;26385;48.470;7.938;2022-07-22T02:10:35;11.48;;;7.88;;
20754;SDS011;26385;48.470;7.938;2022-07-22T02:13:01;11.02;;;8.10;;
20754;SDS011;26385;48.470;7.938;2022-07-22T02:15:27;9.93;;;8.93;;
20754;SDS011;26385;48.470;7.938;2022-07-22T02:17:53;11.73;;;7.72;;
20754;SDS011;26385;48.470;7.938;2022-07-22T02:20:19;9.38;;;8.02;;
20754;SDS011;26385;48.470;7.938;2022-07-22T02:22:45;9.45;;;8.32;;
20754;SDS011;26385;48.470;7.938;2022-07-22T02:25:11;9.85;;;8.70;;
20754;SDS011;26385;48.470;7.938;2022-07-22T02:27:36;10.70;;;8.95;;
20754;SDS011;26385;48.470;7.938;2022-07-22T02:30:03;10.90;;;9.30;;
20754;SDS011;26385;48.470;7.938;2022-07-22T02:32:29;13.52;;;9.40;;
20754;SDS011;26385;48.470;7.938;2022-07-22T02:34:55;10.35;;;9.35;;
20754;SDS011;26385;48.470;7.938;2022-07-22T02:37:20;10.65;;;9.55;;
20754;SDS011;26385;48.470;7.938;2022-07-22T02:39:46;10.38;;;9.38;;
20754;SDS011;26385;48.470;7.938;2022-07-22T02:42:11;10.93;;;9.32;;
20754;SDS011;26385;48.470;7.938;2022-07-22T02:44:36;11.18;;;9.20;;
20754;SDS011;26385;48.470;7.938;2022-07-22T02:47:02;11.20;;;10.10;;
20754;SDS011;26385;48.470;7.938;2022-07-22T02:49:27;11.40;;;10.20;;
20754;SDS011;26385;48.470;7.938;2022-07-22T02:51:52;11.00;;;9.90;;
20754;SDS011;26385;48.470;7.938;2022-07-22T02:54:18;11.80;;;9.52;;
20754;SDS011;26385;48.470;7.938;2022-07-22T02:56:43;10.70;;;9.57;;
20754;SDS011;26385;48.470;7.938;2022-07-22T02:59:08;11.15;;;10.05;;
20754;SDS011;26385;48.470;7.938;2022-07-22T03:01:34;12.98;;;9.48;;
20754;SDS011;26385;48.470;7.938;2022-07-22T03:03:59;13.02;;;9.50;;
20754;SDS011;26385;48.470;7.938;2022-07-22T03:06:24;10.88;;;9.88;;
20754;SDS011;26385;48.470;7.938;2022-07-22T03:08:49;14.20;;;10.25;;
20754;SDS011;26385;48.470;7.938;2022-07-22T03:11:15;12.30;;;10.23;;
20754;SDS011;26385;48.470;7.938;2022-07-22T03:13:40;10.75;;;9.75;;
20754;SDS011;26385;48.470;7.938;2022-07-22T03:16:05;11.43;;;10.18;;
20754;SDS011;26385;48.470;7.938;2022-07-22T03:18:31;11.43;;;10.05;;
20754;SDS011;26385;48.470;7.938;2022-07-22T03:20:56;11.55;;;10.35;;
20754;SDS011;26385;48.470;7.938;2022-07-22T03:23:21;13.40;;;11.15;;
20754;SDS011;26385;48.470;7.938;2022-07-22T03:25:46;12.02;;;10.68;;
20754;SDS011;26385;48.470;7.938;2022-07-22T03:28:12;12.23;;;11.07;;
20754;SDS011;26385;48.470;7.938;2022-07-22T03:30:37;12.77;;;10.88;;
20754;SDS011;26385;48.470;7.938;2022-07-22T03:33:02;11.60;;;10.43;;
20754;SDS011;26385;48.470;7.938;2022-07-22T03:35:28;14.77;;;11.00;;
20754;SDS011;26385;48.470;7.938;2022-07-22T03:37:53;11.95;;;10.75;;
20754;SDS011;26385;48.470;7.938;2022-07-22T03:40:18;11.50;;;10.23;;
20754;SDS011;26385;48.470;7.938;2022-07-22T03:42:43;12.32;;;11.02;;
20754;SDS011;26385;48.470;7.938;2022-07-22T03:45:09;11.90;;;10.50;;
20754;SDS011;26385;48.470;7.938;2022-07-22T03:47:35;11.55;;;10.35;;
20754;SDS011;26385;48.470;7.938;2022-07-22T03:50:00;13.43;;;10.52;;
20754;SDS011;26385;48.470;7.938;2022-07-22T03:52:27;11.82;;;9.82;;
20754;SDS011;26385;48.470;7.938;2022-07-22T03:54:53;13.18;;;10.38;;
20754;SDS011;26385;48.470;7.938;2022-07-22T03:57:19;12.00;;;10.45;;
20754;SDS011;26385;48.470;7.938;2022-07-22T03:59:44;13.93;;;10.80;;
20754;SDS011;26385;48.470;7.938;2022-07-22T04:02:09;14.02;;;10.95;;
20754;SDS011;26385;48.470;7.938;2022-07-22T04:04:35;11.93;;;10.73;;
20754;SDS011;26385;48.470;7.938;2022-07-22T04:07:00;13.85;;;10.80;;
20754;SDS011;26385;48.470;7.938;2022-07-22T04:09:25;13.10;;;11.02;;
20754;SDS011;26385;48.470;7.938;2022-07-22T04:11:50;13.07;;;10.60;;
20754;SDS011;26385;48.470;7.938;2022-07-22T04:14:16;15.07;;;10.07;;
20754;SDS011;26385;48.470;7.938;2022-07-22T04:16:42;12.40;;;10.43;;
20754;SDS011;26385;48.470;7.938;2022-07-22T04:19:09;11.77;;;10.25;;
20754;SDS011;26385;48.470;7.938;2022-07-22T04:21:35;12.07;;;9.75;;
20754;SDS011;26385;48.470;7.938;2022-07-22T04:24:00;11.90;;;9.85;;
20754;SDS011;26385;48.470;7.938;2022-07-22T04:26:25;12.23;;;10.48;;
20754;SDS011;26385;48.470;7.938;2022-07-22T04:28:50;13.00;;;10.48;;
20754;SDS011;26385;48.470;7.938;2022-07-22T04:31:16;13.38;;;10.15;;
20754;SDS011;26385;48.470;7.938;2022-07-22T04:33:41;11.70;;;10.35;;
20754;SDS011;26385;48.470;7.938;2022-07-22T04:36:06;11.23;;;10.05;;
20754;SDS011;26385;48.470;7.938;2022-07-22T04:38:32;11.32;;;10.30;;
20754;SDS011;26385;48.470;7.938;2022-07-22T04:40:57;11.65;;;10.43;;
20754;SDS011;26385;48.470;7.938;2022-07-22T04:43:23;12.05;;;10.80;;
20754;SDS011;26385;48.470;7.938;2022-07-22T04:45:48;11.38;;;10.02;;
20754;SDS011;26385;48.470;7.938;2022-07-22T04:48:14;17.45;;;10.85;;
20754;SDS011;26385;48.470;7.938;2022-07-22T04:50:39;11.75;;;10.65;;
20754;SDS011;26385;48.470;7.938;2022-07-22T04:53:04;12.02;;;10.82;;
20754;SDS011;26385;48.470;7.938;2022-07-22T04:55:30;14.23;;;11.35;;
20754;SDS011;26385;48.470;7.938;2022-07-22T04:57:55;12.57;;;11.38;;
20754;SDS011;26385;48.470;7.938;2022-07-22T05:00:21;12.15;;;10.98;;
20754;SDS011;26385;48.470;7.938;2022-07-22T05:02:47;12.63;;;11.30;;
20754;SDS011;26385;48.470;7.938;2022-07-22T05:05:12;13.52;;;10.95;;
20754;SDS011;26385;48.470;7.938;2022-07-22T05:07:37;12.70;;;11.43;;
20754;SDS011;26385;48.470;7.938;2022-07-22T05:10:03;14.70;;;11.50;;
20754;SDS011;26385;48.470;7.938;2022-07-22T05:12:28;13.20;;;11.90;;
20754;SDS011;26385;48.470;7.938;2022-07-22T05:14:53;13.05;;;11.75;;
20754;SDS011;26385;48.470;7.938;2022-07-22T05:17:19;13.50;;;11.52;;
20754;SDS011;26385;48.470;7.938;2022-07-22T05:19:44;13.50;;;12.07;;
20754;SDS011;26385;48.470;7.938;2022-07-22T05:22:09;12.75;;;11.50;;
20754;SDS011;26385;48.470;7.938;2022-07-22T05:24:35;15.52;;;11.18;;
20754;SDS011;26385;48.470;7.938;2022-07-22T05:27:00;13.60;;;11.57;;
20754;SDS011;26385;48.470;7.938;2022-07-22T05:29:26;12.73;;;11.32;;
20754;SDS011;26385;48.470;7.938;2022-07-22T05:31:51;12.77;;;10.85;;
20754;SDS011;26385;48.470;7.938;2022-07-22T05:34:16;11.45;;;10.35;;
20754;SDS011;26385;48.470;7.938;2022-07-22T05:36:41;12.80;;;11.50;;
20754;SDS011;26385;48.470;7.938;2022-07-22T05:39:07;12.80;;;11.48;;
20754;SDS011;26385;48.470;7.938;2022-07-22T05:41:32;15.15;;;11.68;;
20754;SDS011;26385;48.470;7.938;2022-07-22T05:43:58;12.50;;;10.98;;
20754;SDS011;26385;48.470;7.938;2022-07-22T05:46:23;13.15;;;11.68;;
20754;SDS011;26385;48.470;7.938;2022-07-22T05:48:49;12.55;;;11.25;;
20754;SDS011;26385;48.470;7.938;2022-07-22T05:51:15;13.00;;;11.55;;
20754;SDS011;26385;48.470;7.938;2022-07-22T05:53:41;13.05;;;11.27;;
20754;SDS011;26385;48.470;7.938;2022-07-22T05:56:08;14.40;;;11.15;;
20754;SDS011;26385;48.470;7.938;2022-07-22T05:58:35;12.35;;;11.05;;
20754;SDS011;26385;48.470;7.938;2022-07-22T06:01:00;13.35;;;10.85;;
20754;SDS011;26385;48.470;7.938;2022-07-22T06:03:26;14.27;;;11.10;;
20754;SDS011;26385;48.470;7.938;2022-07-22T06:05:51;13.88;;;11.60;;
20754;SDS011;26385;48.470;7.938;2022-07-22T06:08:16;12.65;;;11.25;;
20754;SDS011;26385;48.470;7.938;2022-07-22T06:10:42;11.75;;;10.65;;
20754;SDS011;26385;48.470;7.938;2022-07-22T06:13:07;9.45;;;8.48;;
20754;SDS011;26385;48.470;7.938;2022-07-22T06:15:32;10.80;;;8.57;;
20754;SDS011;26385;48.470;7.938;2022-07-22T06:17:58;9.35;;;8.50;;
20754;SDS011;26385;48.470;7.938;2022-07-22T06:20:23;12.13;;;9.38;;
20754;SDS011;26385;48.470;7.938;2022-07-22T06:22:48;10.25;;;9.18;;
20754;SDS011;26385;48.470;7.938;2022-07-22T06:25:14;10.50;;;9.02;;
20754;SDS011;26385;48.470;7.938;2022-07-22T06:27:39;14.07;;;9.30;;
20754;SDS011;26385;48.470;7.938;2022-07-22T06:30:04;16.17;;;10.52;;
20754;SDS011;26385;48.470;7.938;2022-07-22T06:32:30;13.00;;;10.93;;
20754;SDS011;26385;48.470;7.938;2022-07-22T06:34:55;11.00;;;9.90;;
20754;SDS011;26385;48.470;7.938;2022-07-22T06:37:21;10.60;;;9.50;;
20754;SDS011;26385;48.470;7.938;2022-07-22T06:39:46;11.10;;;9.27;;
20754;SDS011;26385;48.470;7.938;2022-07-22T06:42:13;11.63;;;9.48;;
20754;SDS011;26385;48.470;7.938;2022-07-22T06:44:38;10.00;;;9.00;;
20754;SDS011;26385;48.470;7.938;2022-07-22T06:47:03;10.97;;;9.83;;
20754;SDS011;26385;48.470;7.938;2022-07-22T06:49:29;10.23;;;9.00;;
20754;SDS011;26385;48.470;7.938;2022-07-22T06:51:54;11.80;;;9.85;;
20754;SDS011;26385;48.470;7.938;2022-07-22T06:54:19;9.93;;;8.90;;
20754;SDS011;26385;48.470;7.938;2022-07-22T06:56:44;10.48;;;9.45;;
20754;SDS011;26385;48.470;7.938;2022-07-22T06:59:10;9.98;;;8.98;;
20754;SDS011;26385;48.470;7.938;2022-07-22T07:01:35;9.95;;;8.95;;
20754;SDS011;26385;48.470;7.938;2022-07-22T07:04:00;9.43;;;8.38;;
20754;SDS011;26385;48.470;7.938;2022-07-22T07:06:27;10.00;;;9.00;;
20754;SDS011;26385;48.470;7.938;2022-07-22T07:08:52;10.27;;;9.27;;
20754;SDS011;26385;48.470;7.938;2022-07-22T07:11:17;10.40;;;9.18;;
20754;SDS011;26385;48.470;7.938;2022-07-22T07:13:43;9.77;;;8.88;;
20754;SDS011;26385;48.470;7.938;2022-07-22T07:16:08;11.43;;;9.43;;
20754;SDS011;26385;48.470;7.938;2022-07-22T07:18:34;10.18;;;9.05;;
20754;SDS011;26385;48.470;7.938;2022-07-22T07:20:59;11.10;;;9.70;;
20754;SDS011;26385;48.470;7.938;2022-07-22T07:23:24;9.45;;;8.55;;
20754;SDS011;26385;48.470;7.938;2022-07-22T07:25:50;9.45;;;8.38;;
20754;SDS011;26385;48.470;7.938;2022-07-22T07:28:15;10.60;;;9.50;;
20754;SDS011;26385;48.470;7.938;2022-07-22T07:30:41;10.07;;;9.07;;
20754;SDS011;26385;48.470;7.938;2022-07-22T07:33:07;10.15;;;9.10;;
20754;SDS011;26385;48.470;7.938;2022-07-22T07:35:32;9.88;;;8.90;;
20754;SDS011;26385;48.470;7.938;2022-07-22T07:37:58;9.68;;;8.48;;
20754;SDS011;26385;48.470;7.938;2022-07-22T07:40:24;8.40;;;7.60;;
20754;SDS011;26385;48.470;7.938;2022-07-22T07:42:50;9.63;;;8.73;;
20754;SDS011;26385;48.470;7.938;2022-07-22T07:45:15;9.20;;;8.30;;
20754;SDS011;26385;48.470;7.938;2022-07-22T07:47:40;10.95;;;8.25;;
20754;SDS011;26385;48.470;7.938;2022-07-22T07:50:06;8.75;;;7.85;;
20754;SDS011;26385;48.470;7.938;2022-07-22T07:52:37;9.48;;;8.32;;
20754;SDS011;26385;48.470;7.938;2022-07-22T07:55:04;9.77;;;7.72;;
20754;SDS011;26385;48.470;7.938;2022-07-22T07:57:30;9.73;;;7.78;;
20754;SDS011;26385;48.470;7.938;2022-07-22T07:59:55;12.00;;;7.95;;
20754;SDS011;26385;48.470;7.938;2022-07-22T08:02:20;7.97;;;7.20;;
20754;SDS011;26385;48.470;7.938;2022-07-22T08:04:46;9.55;;;8.45;;
20754;SDS011;26385;48.470;7.938;2022-07-22T08:07:11;8.38;;;7.57;;
20754;SDS011;26385;48.470;7.938;2022-07-22T08:09:36;9.23;;;7.68;;
20754;SDS011;26385;48.470;7.938;2022-07-22T08:12:02;8.40;;;7.63;;
20754;SDS011;26385;48.470;7.938;2022-07-22T08:14:29;8.85;;;8.00;;
20754;SDS011;26385;48.470;7.938;2022-07-22T08:16:54;9.00;;;8.02;;
20754;SDS011;26385;48.470;7.938;2022-07-22T08:19:19;8.80;;;7.72;;
20754;SDS011;26385;48.470;7.938;2022-07-22T08:21:45;9.07;;;7.88;;
20754;SDS011;26385;48.470;7.938;2022-07-22T08:24:10;12.05;;;7.63;;
20754;SDS011;26385;48.470;7.938;2022-07-22T08:26:36;8.13;;;7.43;;
20754;SDS011;26385;48.470;7.938;2022-07-22T08:29:02;8.63;;;7.72;;
20754;SDS011;26385;48.470;7.938;2022-07-22T08:31:28;9.13;;;7.78;;
20754;SDS011;26385;48.470;7.938;2022-07-22T08:33:53;9.00;;;7.50;;
20754;SDS011;26385;48.470;7.938;2022-07-22T08:36:19;8.90;;;7.50;;
20754;SDS011;26385;48.470;7.938;2022-07-22T08:38:44;10.18;;;7.57;;
20754;SDS011;26385;48.470;7.938;2022-07-22T08:41:10;8.38;;;7.57;;
20754;SDS011;26385;48.470;7.938;2022-07-22T08:43:36;9.82;;;7.72;;
20754;SDS011;26385;48.470;7.938;2022-07-22T08:46:04;7.88;;;7.07;;
20754;SDS011;26385;48.470;7.938;2022-07-22T08:48:29;8.65;;;7.80;;
20754;SDS011;26385;48.470;7.938;2022-07-22T08:50:55;8.90;;;7.90;;
20754;SDS011;26385;48.470;7.938;2022-07-22T08:53:20;8.05;;;7.22;;
20754;SDS011;26385;48.470;7.938;2022-07-22T08:55:46;11.23;;;8.23;;
20754;SDS011;26385;48.470;7.938;2022-07-22T08:58:12;9.50;;;7.50;;
20754;SDS011;26385;48.470;7.938;2022-07-22T09:00:38;8.50;;;7.68;;
20754;SDS011;26385;48.470;7.938;2022-07-22T09:03:20;8.35;;;7.38;;
20754;SDS011;26385;48.470;7.938;2022-07-22T09:05:50;9.95;;;8.30;;
20754;SDS011;26385;48.470;7.938;2022-07-22T09:08:16;9.00;;;8.00;;
20754;SDS011;26385;48.470;7.938;2022-07-22T09:10:42;9.02;;;7.25;;
20754;SDS011;26385;48.470;7.938;2022-07-22T09:13:08;8.73;;;7.53;;
20754;SDS011;26385;48.470;7.938;2022-07-22T09:15:38;8.00;;;7.35;;
20754;SDS011;26385;48.470;7.938;2022-07-22T09:18:10;8.23;;;7.43;;
20754;SDS011;26385;48.470;7.938;2022-07-22T09:20:35;8.60;;;7.70;;
20754;SDS011;26385;48.470;7.938;2022-07-22T09:23:04;8.45;;;7.43;;
20754;SDS011;26385;48.470;7.938;2022-07-22T09:25:36;8.80;;;7.85;;
20754;SDS011;26385;48.470;7.938;2022-07-22T09:30:30;8.63;;;7.78;;
20754;SDS011;26385;48.470;7.938;2022-07-22T09:32:57;9.35;;;7.85;;
20754;SDS011;26385;48.470;7.938;2022-07-22T09:35:22;8.77;;;7.50;;
20754;SDS011;26385;48.470;7.938;2022-07-22T09:37:50;10.00;;;8.18;;
20754;SDS011;26385;48.470;7.938;2022-07-22T09:40:24;8.75;;;7.82;;
20754;SDS011;26385;48.470;7.938;2022-07-22T09:42:52;11.52;;;7.72;;
20754;SDS011;26385;48.470;7.938;2022-07-22T09:45:20;8.38;;;7.53;;
20754;SDS011;26385;48.470;7.938;2022-07-22T09:47:47;9.13;;;7.82;;
20754;SDS011;26385;48.470;7.938;2022-07-22T09:50:23;9.15;;;8.25;;
20754;SDS011;26385;48.470;7.938;2022-07-22T09:52:52;8.40;;;7.60;;
20754;SDS011;26385;48.470;7.938;2022-07-22T09:55:19;12.20;;;8.02;;
20754;SDS011;26385;48.470;7.938;2022-07-22T09:57:46;9.07;;;8.18;;
20754;SDS011;26385;48.470;7.938;2022-07-22T10:00:13;8.85;;;8.02;;
20754;SDS011;26385;48.470;7.938;2022-07-22T10:02:48;8.20;;;7.40;;
20754;SDS011;26385;48.470;7.938;2022-07-22T10:05:17;10.20;;;7.70;;
20754;SDS011;26385;48.470;7.938;2022-07-22T10:07:45;8.82;;;7.95;;
20754;SDS011;26385;48.470;7.938;2022-07-22T10:10:12;9.70;;;7.47;;
20754;SDS011;26385;48.470;7.938;2022-07-22T10:12:42;8.73;;;7.93;;
20754;SDS011;26385;48.470;7.938;2022-07-22T10:15:09;8.95;;;7.18;;
20754;SDS011;26385;48.470;7.938;2022-07-22T10:17:37;8.23;;;7.53;;
20754;SDS011;26385;48.470;7.938;2022-07-22T10:20:04;8.93;;;8.05;;
20754;SDS011;26385;48.470;7.938;2022-07-22T10:25:09;8.13;;;7.43;;
20754;SDS011;26385;48.470;7.938;2022-07-22T10:27:50;8.93;;;8.02;;
20754;SDS011;26385;48.470;7.938;2022-07-22T10:30:22;9.43;;;7.53;;
20754;SDS011;26385;48.470;7.938;2022-07-22T10:33:06;8.50;;;7.63;;
20754;SDS011;26385;48.470;7.938;2022-07-22T10:38:08;9.30;;;8.40;;
20754;SDS011;26385;48.470;7.938;2022-07-22T10:40:55;9.52;;;8.07;;
20754;SDS011;26385;48.470;7.938;2022-07-22T10:43:27;9.55;;;7.75;;
20754;SDS011;26385;48.470;7.938;2022-07-22T10:46:12;8.98;;;7.55;;
20754;SDS011;26385;48.470;7.938;2022-07-22T10:51:11;8.97;;;8.07;;
20754;SDS011;26385;48.470;7.938;2022-07-22T10:53:44;8.48;;;7.63;;
20754;SDS011;26385;48.470;7.938;2022-07-22T10:56:16;9.48;;;7.57;;
20754;SDS011;26385;48.470;7.938;2022-07-22T10:58:59;9.57;;;7.60;;
20754;SDS011;26385;48.470;7.938;2022-07-22T11:01:34;8.80;;;8.00;;
20754;SDS011;26385;48.470;7.938;2022-07-22T11:04:07;7.95;;;7.25;;
20754;SDS011;26385;48.470;7.938;2022-07-22T11:06:34;9.32;;;8.35;;
20754;SDS011;26385;48.470;7.938;2022-07-22T11:09:01;8.23;;;7.43;;
20754;SDS011;26385;48.470;7.938;2022-07-22T11:11:31;8.60;;;7.68;;
20754;SDS011;26385;48.470;7.938;2022-07-22T11:13:58;8.40;;;7.57;;
20754;SDS011;26385;48.470;7.938;2022-07-22T11:16:24;9.38;;;7.93;;
20754;SDS011;26385;48.470;7.938;2022-07-22T11:21:18;8.50;;;7.60;;
20754;SDS011;26385;48.470;7.938;2022-07-22T11:23:44;8.52;;;7.82;;
20754;SDS011;26385;48.470;7.938;2022-07-22T11:26:14;8.48;;;7.60;;
20754;SDS011;26385;48.470;7.938;2022-07-22T11:28:41;8.45;;;7.65;;
20754;SDS011;26385;48.470;7.938;2022-07-22T11:31:08;7.78;;;7.07;;
20754;SDS011;26385;48.470;7.938;2022-07-22T11:33:35;8.02;;;7.28;;
20754;SDS011;26385;48.470;7.938;2022-07-22T11:36:04;8.20;;;7.40;;
20754;SDS011;26385;48.470;7.938;2022-07-22T11:38:47;7.53;;;6.82;;
20754;SDS011;26385;48.470;7.938;2022-07-22T11:41:17;10.27;;;7.80;;
20754;SDS011;26385;48.470;7.938;2022-07-22T11:43:44;11.20;;;7.90;;
20754;SDS011;26385;48.470;7.938;2022-07-22T11:46:11;10.27;;;8.63;;
20754;SDS011;26385;48.470;7.938;2022-07-22T11:48:38;9.15;;;7.40;;
20754;SDS011;26385;48.470;7.938;2022-07-22T11:51:04;7.72;;;7.03;;
20754;SDS011;26385;48.470;7.938;2022-07-22T11:53:30;8.18;;;7.47;;
20754;SDS011;26385;48.470;7.938;2022-07-22T11:55:56;8.52;;;7.72;;
20754;SDS011;26385;48.470;7.938;2022-07-22T12:01:01;8.30;;;7.50;;
20754;SDS011;26385;48.470;7.938;2022-07-22T12:03:26;8.05;;;7.32;;
20754;SDS011;26385;48.470;7.938;2022-07-22T12:05:53;8.88;;;8.07;;
20754;SDS011;26385;48.470;7.938;2022-07-22T12:08:19;8.38;;;7.57;;
20754;SDS011;26385;48.470;7.938;2022-07-22T12:10:45;8.07;;;7.38;;
20754;SDS011;26385;48.470;7.938;2022-07-22T12:13:11;8.27;;;7.47;;
20754;SDS011;26385;48.470;7.938;2022-07-22T12:15:38;8.35;;;7.55;;
20754;SDS011;26385;48.470;7.938;2022-07-22T12:18:22;7.75;;;7.05;;
20754;SDS011;26385;48.470;7.938;2022-07-22T12:20:51;8.35;;;7.55;;
20754;SDS011;26385;48.470;7.938;2022-07-22T12:23:17;7.95;;;7.32;;
20754;SDS011;26385;48.470;7.938;2022-07-22T12:25:49;8.07;;;7.28;;
20754;SDS011;26385;48.470;7.938;2022-07-22T12:28:18;8.13;;;6.95;;
20754;SDS011;26385;48.470;7.938;2022-07-22T12:30:43;9.52;;;7.25;;
20754;SDS011;26385;48.470;7.938;2022-07-22T12:33:14;8.55;;;7.63;;
20754;SDS011;26385;48.470;7.938;2022-07-22T12:35:40;10.20;;;7.72;;
20754;SDS011;26385;48.470;7.938;2022-07-22T12:38:10;10.10;;;7.50;;
20754;SDS011;26385;48.470;7.938;2022-07-22T12:40:35;8.18;;;7.47;;
20754;SDS011;26385;48.470;7.938;2022-07-22T12:45:29;7.78;;;7.07;;
20754;SDS011;26385;48.470;7.938;2022-07-22T12:53:03;8.85;;;7.45;;
20754;SDS011;26385;48.470;7.938;2022-07-22T12:55:29;7.38;;;6.78;;
20754;SDS011;26385;48.470;7.938;2022-07-22T12:57:55;8.13;;;7.32;;
20754;SDS011;26385;48.470;7.938;2022-07-22T13:00:25;8.10;;;7.40;;
20754;SDS011;26385;48.470;7.938;2022-07-22T13:02:55;7.80;;;7.13;;
20754;SDS011;26385;48.470;7.938;2022-07-22T13:05:21;7.85;;;7.15;;
20754;SDS011;26385;48.470;7.938;2022-07-22T13:07:47;7.68;;;6.88;;
20754;SDS011;26385;48.470;7.938;2022-07-22T13:10:13;8.05;;;7.35;;
20754;SDS011;26385;48.470;7.938;2022-07-22T13:12:39;7.75;;;7.05;;
20754;SDS011;26385;48.470;7.938;2022-07-22T13:15:06;8.85;;;7.35;;
20754;SDS011;26385;48.470;7.938;2022-07-22T13:17:31;8.05;;;7.35;;
20754;SDS011;26385;48.470;7.938;2022-07-22T13:19:57;8.65;;;7.13;;
20754;SDS011;26385;48.470;7.938;2022-07-22T13:22:22;8.43;;;7.63;;
20754;SDS011;26385;48.470;7.938;2022-07-22T13:24:47;8.63;;;7.20;;
20754;SDS011;26385;48.470;7.938;2022-07-22T13:27:13;8.00;;;7.30;;
20754;SDS011;26385;48.470;7.938;2022-07-22T13:29:38;9.80;;;7.70;;
20754;SDS011;26385;48.470;7.938;2022-07-22T13:32:04;9.02;;;7.70;;
20754;SDS011;26385;48.470;7.938;2022-07-22T13:34:30;7.93;;;7.22;;
20754;SDS011;26385;48.470;7.938;2022-07-22T13:36:56;8.05;;;7.25;;
20754;SDS011;26385;48.470;7.938;2022-07-22T13:39:21;8.65;;;7.75;;
20754;SDS011;26385;48.470;7.938;2022-07-22T13:41:48;7.85;;;7.13;;
20754;SDS011;26385;48.470;7.938;2022-07-22T13:44:13;8.33;;;7.03;;
20754;SDS011;26385;48.470;7.938;2022-07-22T13:46:38;7.43;;;6.80;;
20754;SDS011;26385;48.470;7.938;2022-07-22T13:49:04;7.50;;;6.80;;
20754;SDS011;26385;48.470;7.938;2022-07-22T13:51:29;7.50;;;6.72;;
20754;SDS011;26385;48.470;7.938;2022-07-22T13:53:55;9.38;;;6.82;;
20754;SDS011;26385;48.470;7.938;2022-07-22T13:56:21;7.72;;;7.03;;
20754;SDS011;26385;48.470;7.938;2022-07-22T13:58:48;8.00;;;7.18;;
20754;SDS011;26385;48.470;7.938;2022-07-22T14:01:13;8.40;;;7.63;;
20754;SDS011;26385;48.470;7.938;2022-07-22T14:03:38;7.40;;;6.80;;
20754;SDS011;26385;48.470;7.938;2022-07-22T14:06:04;7.72;;;7.03;;
20754;SDS011;26385;48.470;7.938;2022-07-22T14:08:30;7.53;;;6.93;;
20754;SDS011;26385;48.470;7.938;2022-07-22T14:10:56;7.97;;;7.00;;
20754;SDS011;26385;48.470;7.938;2022-07-22T14:13:21;7.63;;;7.03;;
20754;SDS011;26385;48.470;7.938;2022-07-22T14:15:46;7.57;;;6.77;;
20754;SDS011;26385;48.470;7.938;2022-07-22T14:18:12;7.63;;;6.82;;
20754;SDS011;26385;48.470;7.938;2022-07-22T14:20:37;7.70;;;7.10;;
20754;SDS011;26385;48.470;7.938;2022-07-22T14:23:02;7.90;;;7.10;;
20754;SDS011;26385;48.470;7.938;2022-07-22T14:25:30;7.82;;;7.07;;
20754;SDS011;26385;48.470;7.938;2022-07-22T14:27:56;7.57;;;6.97;;
20754;SDS011;26385;48.470;7.938;2022-07-22T14:30:21;7.30;;;6.70;;
20754;SDS011;26385;48.470;7.938;2022-07-22T14:32:47;7.25;;;6.50;;
20754;SDS011;26385;48.470;7.938;2022-07-22T14:35:12;7.78;;;7.00;;
20754;SDS011;26385;48.470;7.938;2022-07-22T14:37:37;8.50;;;7.20;;
20754;SDS011;26385;48.470;7.938;2022-07-22T14:40:03;7.90;;;7.00;;
20754;SDS011;26385;48.470;7.938;2022-07-22T14:42:29;7.80;;;7.10;;
20754;SDS011;26385;48.470;7.938;2022-07-22T14:44:54;7.90;;;7.20;;
20754;SDS011;26385;48.470;7.938;2022-07-22T14:47:20;8.20;;;7.40;;
20754;SDS011;26385;48.470;7.938;2022-07-22T14:49:45;7.43;;;6.73;;
20754;SDS011;26385;48.470;7.938;2022-07-22T14:52:10;8.07;;;6.97;;
20754;SDS011;26385;48.470;7.938;2022-07-22T14:54:36;8.57;;;7.72;;
20754;SDS011;26385;48.470;7.938;2022-07-22T14:57:01;7.90;;;7.20;;